Time;durP1;ratioP1;P1;durP2;ratioP2;P2;SDS_P1;SDS_P2;PMS_P1;PMS_P2;Temp;Humidity;BMP_temperature;BMP_pressure;BME280_temperature;BME280_humidity;BME280_pressure;Samples;Min_cycle;Max_cycle;Signal;HPM_P1;HPM_P2
2024/04/09 00:00:45;;;;;;;;;;;18.60;1.00;;;;;;5375823;26;20264;-83
2024/04/09 00:03:22;;;;;;;;;;;18.70;1.00;;;;;;5381684;26;19936;-83
2024/04/09 00:05:54;;;;;;;;;;;18.70;1.00;;;;;;5378903;26;19929;-84
2024/04/09 00:08:21;;;;;;;;;;;18.70;1.00;;;;;;5367881;26;19938;-82
2024/04/09 00:10:49;;;;;;;;;;;18.60;1.00;;;;;;5382198;26;19937;-83
2024/04/09 00:13:15;;;;;;;;;;;18.60;1.00;;;;;;5381180;26;19930;-82
2024/04/09 00:15:40;;;;;;;;;;;18.50;1.00;;;;;;5378789;26;19999;-83
2024/04/09 00:18:11;;;;;;;;;;;18.40;34.10;;;;;;5375937;26;19929;-83
2024/04/09 00:20:38;;;;;;;;;;;18.40;99.90;;;;;;5388194;26;20021;-83
2024/04/09 00:23:06;;;;;;;;;;;18.30;99.90;;;;;;5396784;26;19936;-84
2024/04/09 00:25:49;;;;;;;;;;;18.30;99.90;;;;;;5380525;26;19930;-84
2024/04/09 00:28:16;;;;;;;;;;;18.30;99.90;;;;;;5396593;26;19949;-84
2024/04/09 00:30:44;;;;;;;;;;;18.20;99.90;;;;;;5366911;26;19980;-83
2024/04/09 00:33:12;;;;;;;;;;;18.20;99.90;;;;;;5396188;26;19929;-84
2024/04/09 00:35:42;;;;;;;;;;;18.10;1.00;;;;;;5390867;26;19929;-83
2024/04/09 00:38:14;;;;;;;;;;;18.10;1.00;;;;;;5394230;26;19929;-83
2024/04/09 00:40:42;;;;;;;;;;;18.00;1.00;;;;;;5388433;26;19938;-82
2024/04/09 00:43:08;;;;;;;;;;;18.00;1.00;;;;;;5391967;26;19937;-84
2024/04/09 00:45:36;;;;;;;;;;;18.00;88.10;;;;;;5391017;26;19933;-84
2024/04/09 00:48:02;;;;;;;;;;;17.90;99.90;;;;;;5392614;26;19930;-84
2024/04/09 00:50:41;;;;;;;;;;;17.90;99.90;;;;;;5365071;26;19978;-83
2024/04/09 00:53:11;;;;;;;;;;;17.80;99.90;;;;;;5369590;26;19930;-83
2024/04/09 00:55:40;;;;;;;;;;;17.70;1.00;;;;;;5394112;26;19980;-83
2024/04/09 00:58:08;;;;;;;;;;;17.70;1.00;;;;;;5382318;26;19930;-83
2024/04/09 01:00:41;;;;;;;;;;;17.70;99.90;;;;;;5370538;26;20368;-82
2024/04/09 01:03:07;;;;;;;;;;;17.60;99.90;;;;;;5380356;26;20024;-83
2024/04/09 01:05:32;;;;;;;;;;;17.60;1.00;;;;;;5383129;26;20364;-83
2024/04/09 01:07:58;;;;;;;;;;;17.50;1.00;;;;;;5381942;26;19937;-83
2024/04/09 01:10:33;;;;;;;;;;;;;;;;;;;;;
2024/04/09 01:13:00;;;;;;;;;;;17.50;1.00;;;;;;5365669;26;20366;-83
2024/04/09 01:15:34;;;;;;;;;;;17.40;1.00;;;;;;5369813;26;19929;-83
2024/04/09 01:17:59;;;;;;;;;;;17.40;99.90;;;;;;5366652;26;19936;-83
2024/04/09 01:20:28;;;;;;;;;;;17.30;1.00;;;;;;5375856;26;19929;-83
2024/04/09 01:22:54;;;;;;;;;;;17.30;99.90;;;;;;5366913;26;19929;-83
2024/04/09 01:25:49;;;;;;;;;;;17.20;99.90;;;;;;5367824;26;19937;-82
2024/04/09 01:28:15;;;;;;;;;;;17.20;1.00;;;;;;5385336;26;19936;-82
2024/04/09 01:30:40;;;;;;;;;;;17.10;99.90;;;;;;5384405;26;19930;-82
2024/04/09 01:33:06;;;;;;;;;;;17.00;99.90;;;;;;5372256;26;19957;-83
2024/04/09 01:35:42;;;;;;;;;;;17.00;1.00;;;;;;5387944;26;19930;-83
2024/04/09 01:38:08;;;;;;;;;;;16.90;1.00;;;;;;5389314;26;19929;-83
2024/04/09 01:40:34;;;;;;;;;;;16.90;1.00;;;;;;5385367;26;19930;-82
2024/04/09 01:42:59;;;;;;;;;;;16.90;1.00;;;;;;5386771;20;19933;-83
2024/04/09 01:45:41;;;;;;;;;;;16.80;99.90;;;;;;5363745;26;19936;-83
2024/04/09 01:48:06;;;;;;;;;;;16.80;99.90;;;;;;5356592;26;20373;-83
2024/04/09 01:50:35;;;;;;;;;;;16.70;87.90;;;;;;5359099;26;19936;-83
2024/04/09 01:53:01;;;;;;;;;;;16.70;75.90;;;;;;5359343;26;20295;-83
2024/04/09 01:55:27;;;;;;;;;;;16.70;99.90;;;;;;5394065;26;19929;-83
2024/04/09 01:57:53;;;;;;;;;;;16.70;99.90;;;;;;5373746;26;19959;-83
2024/04/09 02:00:21;;;;;;;;;;;16.60;99.90;;;;;;5437666;26;19941;-84
2024/04/09 02:02:48;;;;;;;;;;;16.60;99.90;;;;;;5378830;26;19962;-84
2024/04/09 02:05:18;;;;;;;;;;;16.60;99.90;;;;;;5377351;26;19937;-82
2024/04/09 02:07:43;;;;;;;;;;;16.60;99.90;;;;;;5393384;26;19969;-83
2024/04/09 02:10:12;;;;;;;;;;;16.60;99.90;;;;;;5452982;26;19937;-83
2024/04/09 02:12:38;;;;;;;;;;;16.60;99.90;;;;;;5393440;26;19933;-83
2024/04/09 02:15:04;;;;;;;;;;;16.60;99.90;;;;;;5391010;26;20831;-82
2024/04/09 02:17:32;;;;;;;;;;;16.60;99.90;;;;;;5391695;26;20002;-83
2024/04/09 02:20:02;;;;;;;;;;;16.60;99.90;;;;;;5372605;26;19934;-83
2024/04/09 02:22:30;;;;;;;;;;;16.60;99.90;;;;;;5433801;26;20390;-83
2024/04/09 02:24:56;;;;;;;;;;;16.60;99.90;;;;;;5381062;26;19980;-82
2024/04/09 02:27:25;;;;;;;;;;;16.60;99.90;;;;;;5350145;26;19961;-83
2024/04/09 02:30:09;;;;;;;;;;;16.60;99.90;;;;;;5448490;26;19937;-82
2024/04/09 02:32:35;;;;;;;;;;;16.60;99.90;;;;;;5387527;26;19944;-81
2024/04/09 02:35:04;;;;;;;;;;;16.60;7.30;;;;;;5370763;26;20645;-82
2024/04/09 02:37:38;;;;;;;;;;;16.60;1.00;;;;;;5365587;26;20276;-81
2024/04/09 02:40:04;;;;;;;;;;;16.60;1.00;;;;;;5374073;26;19936;-82
2024/04/09 02:42:32;;;;;;;;;;;16.60;1.00;;;;;;5373424;26;19929;-82
2024/04/09 02:44:58;;;;;;;;;;;16.60;1.00;;;;;;5379457;26;19933;-82
2024/04/09 02:47:33;;;;;;;;;;;16.50;1.00;;;;;;5431965;26;19957;-82
2024/04/09 02:49:58;;;;;;;;;;;16.50;31.70;;;;;;5369553;26;20283;-82
2024/04/09 02:52:24;;;;;;;;;;;16.40;99.90;;;;;;5384511;26;19938;-82
2024/04/09 02:54:50;;;;;;;;;;;16.50;99.90;;;;;;5353549;26;19938;-82
2024/04/09 02:57:16;;;;;;;;;;;16.40;99.90;;;;;;5362348;26;19993;-83
2024/04/09 02:59:41;;;;;;;;;;;16.40;99.90;;;;;;5387161;26;19929;-82
2024/04/09 03:02:07;;;;;;;;;;;16.40;99.90;;;;;;5383085;26;19930;-83
2024/04/09 03:04:32;;;;;;;;;;;16.40;99.90;;;;;;5384960;26;19929;-82
2024/04/09 03:07:00;;;;;;;;;;;16.40;99.90;;;;;;5370655;26;19958;-82
2024/04/09 03:09:31;;;;;;;;;;;16.40;99.90;;;;;;5385905;26;19937;-82
2024/04/09 03:11:57;;;;;;;;;;;16.40;99.90;;;;;;5427757;26;19930;-81
2024/04/09 03:14:32;;;;;;;;;;;16.40;1.00;;;;;;5386325;26;19990;-83
2024/04/09 03:16:58;;;;;;;;;;;16.40;99.90;;;;;;5374121;26;20372;-82
2024/04/09 03:19:32;;;;;;;;;;;16.40;99.90;;;;;;5381751;26;19966;-82
2024/04/09 03:21:57;;;;;;;;;;;16.30;99.90;;;;;;5379409;26;20331;-83
2024/04/09 03:24:34;;;;;;;;;;;16.30;99.90;;;;;;5375053;26;19929;-82
2024/04/09 03:27:00;;;;;;;;;;;16.30;1.00;;;;;;5390699;26;19930;-83
2024/04/09 03:29:29;;;;;;;;;;;16.30;99.90;;;;;;5440601;26;19937;-83
2024/04/09 03:31:54;;;;;;;;;;;16.30;99.90;;;;;;5363719;26;20000;-83
2024/04/09 03:34:22;;;;;;;;;;;16.20;99.90;;;;;;5385146;26;19930;-83
2024/04/09 03:36:49;;;;;;;;;;;16.10;99.90;;;;;;5385530;26;19994;-83
2024/04/09 03:39:15;;;;;;;;;;;16.00;1.00;;;;;;5366230;26;19941;-83
2024/04/09 03:41:41;;;;;;;;;;;16.00;1.00;;;;;;5377686;26;20359;-83
2024/04/09 03:44:07;;;;;;;;;;;15.90;1.00;;;;;;5470295;21;20004;-84
2024/04/09 03:46:32;;;;;;;;;;;15.80;1.00;;;;;;5495623;26;20405;-85
2024/04/09 03:48:58;;;;;;;;;;;15.80;1.00;;;;;;5429526;26;19961;-85
2024/04/09 03:51:23;;;;;;;;;;;15.70;1.00;;;;;;5427990;26;20381;-86
2024/04/09 03:53:49;;;;;;;;;;;15.60;1.00;;;;;;5460298;26;19937;-85
2024/04/09 03:56:15;;;;;;;;;;;15.60;1.00;;;;;;5470238;26;19969;-85
2024/04/09 03:58:41;;;;;;;;;;;15.50;1.00;;;;;;5497650;26;19928;-85
2024/04/09 04:01:08;;;;;;;;;;;15.40;1.00;;;;;;5487561;26;19928;-86
2024/04/09 04:03:34;;;;;;;;;;;15.40;1.00;;;;;;5459412;26;19928;-84
2024/04/09 04:06:00;;;;;;;;;;;15.30;1.00;;;;;;5471593;26;19928;-84
2024/04/09 04:08:29;;;;;;;;;;;15.20;1.00;;;;;;5422342;26;20278;-83
2024/04/09 04:10:56;;;;;;;;;;;15.20;1.00;;;;;;5455837;26;19952;-83
2024/04/09 04:13:23;;;;;;;;;;;15.20;1.00;;;;;;5460603;26;19929;-83
2024/04/09 04:16:04;;;;;;;;;;;15.10;1.00;;;;;;5456006;26;19932;-85
2024/04/09 04:18:35;;;;;;;;;;;15.10;1.00;;;;;;5455817;26;19957;-85
2024/04/09 04:21:01;;;;;;;;;;;15.10;1.00;;;;;;5444683;26;19940;-85
2024/04/09 04:23:27;;;;;;;;;;;15.00;1.00;;;;;;5433442;26;19936;-84
2024/04/09 04:26:16;;;;;;;;;;;15.00;3.80;;;;;;5455017;26;19959;-84
2024/04/09 04:28:42;;;;;;;;;;;15.00;7.00;;;;;;5435801;26;19928;-83
2024/04/09 04:31:12;;;;;;;;;;;14.90;11.00;;;;;;5491157;26;19932;-84
2024/04/09 04:33:38;;;;;;;;;;;14.90;15.50;;;;;;5491706;26;19928;-84
2024/04/09 04:36:07;;;;;;;;;;;14.90;17.70;;;;;;5491324;26;19935;-84
2024/04/09 04:38:33;;;;;;;;;;;14.90;21.10;;;;;;5454865;26;19935;-85
2024/04/09 04:40:59;;;;;;;;;;;14.80;22.90;;;;;;5470371;26;19928;-82
2024/04/09 04:43:24;;;;;;;;;;;14.80;23.80;;;;;;5453279;26;19939;-84
2024/04/09 04:45:51;;;;;;;;;;;14.80;24.50;;;;;;5437985;26;20381;-83
2024/04/09 04:48:18;;;;;;;;;;;14.80;26.10;;;;;;5447109;26;19936;-84
2024/04/09 04:50:45;;;;;;;;;;;14.80;25.60;;;;;;5433199;26;19932;-84
2024/04/09 04:53:11;;;;;;;;;;;14.80;26.80;;;;;;5453215;26;19936;-82
2024/04/09 04:55:36;;;;;;;;;;;14.80;26.40;;;;;;5459419;26;19928;-84
2024/04/09 04:58:02;;;;;;;;;;;14.80;27.50;;;;;;5455498;26;19956;-83
2024/04/09 05:00:27;;;;;;;;;;;14.80;26.70;;;;;;5481686;26;19935;-84
2024/04/09 05:02:53;;;;;;;;;;;14.80;27.60;;;;;;5488184;26;19935;-84
2024/04/09 05:05:18;;;;;;;;;;;14.80;29.60;;;;;;5483305;26;19928;-85
2024/04/09 05:07:44;;;;;;;;;;;14.80;29.10;;;;;;5455740;26;19936;-85
2024/04/09 05:10:12;;;;;;;;;;;14.80;27.60;;;;;;5423826;26;19936;-83
2024/04/09 05:12:42;;;;;;;;;;;14.80;25.70;;;;;;5455556;26;19929;-84
2024/04/09 05:15:08;;;;;;;;;;;14.80;26.30;;;;;;5454785;26;19939;-85
2024/04/09 05:17:34;;;;;;;;;;;14.70;26.40;;;;;;5455223;26;19961;-84
2024/04/09 05:20:01;;;;;;;;;;;14.70;26.60;;;;;;5429502;26;19928;-83
2024/04/09 05:22:26;;;;;;;;;;;14.70;23.80;;;;;;5491716;26;19927;-85
2024/04/09 05:24:52;;;;;;;;;;;14.70;24.80;;;;;;5492412;26;20379;-85
2024/04/09 05:27:17;;;;;;;;;;;14.70;23.00;;;;;;5492640;26;19996;-84
2024/04/09 05:29:43;;;;;;;;;;;14.70;21.40;;;;;;5488970;26;19939;-85
2024/04/09 05:32:09;;;;;;;;;;;14.70;19.20;;;;;;5454454;26;19928;-85
2024/04/09 05:34:34;;;;;;;;;;;14.70;13.60;;;;;;5460953;26;19932;-85
2024/04/09 05:37:00;;;;;;;;;;;14.70;1.00;;;;;;5457469;26;19974;-84
2024/04/09 05:39:25;;;;;;;;;;;14.60;1.00;;;;;;5453758;26;19928;-82
2024/04/09 05:41:51;;;;;;;;;;;14.60;1.00;;;;;;5454018;26;20371;-85
2024/04/09 05:44:16;;;;;;;;;;;14.60;1.00;;;;;;5461205;26;20250;-84
2024/04/09 05:46:41;;;;;;;;;;;14.50;1.00;;;;;;5485930;26;19995;-84
2024/04/09 05:49:10;;;;;;;;;;;14.40;1.00;;;;;;5447541;26;19953;-84
2024/04/09 05:51:35;;;;;;;;;;;14.30;1.00;;;;;;5498112;26;19943;-85
2024/04/09 05:54:01;;;;;;;;;;;14.20;1.00;;;;;;5479051;26;19928;-83
2024/04/09 05:56:26;;;;;;;;;;;14.10;1.00;;;;;;5481656;26;19943;-84
2024/04/09 05:58:52;;;;;;;;;;;14.00;1.00;;;;;;5439891;26;19952;-84
2024/04/09 06:01:20;;;;;;;;;;;14.00;1.00;;;;;;5489263;26;19928;-83
2024/04/09 06:03:46;;;;;;;;;;;14.00;1.00;;;;;;5482740;26;20283;-83
2024/04/09 06:06:11;;;;;;;;;;;14.00;1.00;;;;;;5454446;26;19992;-82
2024/04/09 06:08:37;;;;;;;;;;;14.00;1.00;;;;;;5479967;26;19928;-82
2024/04/09 06:11:03;;;;;;;;;;;13.90;1.00;;;;;;5480537;26;19940;-83
2024/04/09 06:13:29;;;;;;;;;;;13.80;1.00;;;;;;5456768;26;19935;-81
2024/04/09 06:15:54;;;;;;;;;;;13.70;1.00;;;;;;5463260;26;19932;-83
2024/04/09 06:18:20;;;;;;;;;;;13.60;1.00;;;;;;5429059;26;19939;-84
2024/04/09 06:20:45;;;;;;;;;;;13.50;1.00;;;;;;5488148;26;19928;-83
2024/04/09 06:23:11;;;;;;;;;;;13.40;1.00;;;;;;5464194;26;19975;-84
2024/04/09 06:25:36;;;;;;;;;;;13.40;1.00;;;;;;5463065;26;19932;-83
2024/04/09 06:28:03;;;;;;;;;;;13.40;1.00;;;;;;5478021;26;19972;-81
2024/04/09 06:30:28;;;;;;;;;;;13.30;1.00;;;;;;5480933;26;20277;-81
2024/04/09 06:32:54;;;;;;;;;;;13.30;1.00;;;;;;5485119;26;19931;-84
2024/04/09 06:35:20;;;;;;;;;;;13.30;99.90;;;;;;5469273;26;19928;-84
2024/04/09 06:37:46;;;;;;;;;;;13.20;99.90;;;;;;5486798;26;19928;-84
2024/04/09 06:40:11;;;;;;;;;;;13.30;99.90;;;;;;5475830;26;19939;-85
2024/04/09 06:42:36;;;;;;;;;;;13.30;99.90;;;;;;5440983;26;20414;-81
2024/04/09 06:45:03;;;;;;;;;;;13.30;99.90;;;;;;5455223;26;19928;-82
2024/04/09 06:47:29;;;;;;;;;;;13.30;99.90;;;;;;5492400;26;19994;-82
2024/04/09 06:49:55;;;;;;;;;;;13.40;71.50;;;;;;5484366;26;19929;-84
2024/04/09 06:52:20;;;;;;;;;;;13.40;43.20;;;;;;5460520;26;20290;-83
2024/04/09 06:54:46;;;;;;;;;;;13.50;1.00;;;;;;5468324;26;20018;-84
2024/04/09 06:57:12;;;;;;;;;;;13.60;1.00;;;;;;5469197;26;19940;-84
2024/04/09 06:59:37;;;;;;;;;;;13.70;1.00;;;;;;5488940;26;20035;-84
2024/04/09 07:02:03;;;;;;;;;;;13.80;99.90;;;;;;5481913;26;19972;-84
2024/04/09 07:04:28;;;;;;;;;;;13.80;99.90;;;;;;5487731;26;19928;-84
2024/04/09 07:06:54;;;;;;;;;;;13.80;99.90;;;;;;5489030;26;20586;-82
2024/04/09 07:09:20;;;;;;;;;;;13.80;1.00;;;;;;5486760;26;19928;-84
2024/04/09 07:11:46;;;;;;;;;;;13.80;1.00;;;;;;5488301;26;19987;-84
2024/04/09 07:14:13;;;;;;;;;;;13.80;99.90;;;;;;5472659;26;20278;-82
2024/04/09 07:16:39;;;;;;;;;;;13.80;99.90;;;;;;5489219;26;19935;-83
2024/04/09 07:19:05;;;;;;;;;;;13.80;99.90;;;;;;5489603;26;20294;-83
2024/04/09 07:21:30;;;;;;;;;;;13.80;1.00;;;;;;5485898;26;20366;-84
2024/04/09 07:23:56;;;;;;;;;;;13.80;1.00;;;;;;5485686;26;19928;-82
2024/04/09 07:26:21;;;;;;;;;;;13.80;3.10;;;;;;5444474;26;19944;-83
2024/04/09 07:28:47;;;;;;;;;;;13.90;99.90;;;;;;5477783;26;19928;-83
2024/04/09 07:31:14;;;;;;;;;;;14.00;1.00;;;;;;5482089;26;19935;-83
2024/04/09 07:33:39;;;;;;;;;;;14.20;99.90;;;;;;5428056;26;19976;-81
2024/04/09 07:36:06;;;;;;;;;;;14.50;99.90;;;;;;5459451;26;19928;-81
2024/04/09 07:38:31;;;;;;;;;;;14.90;99.90;;;;;;5469223;26;19954;-84
2024/04/09 07:40:57;;;;;;;;;;;15.20;99.90;;;;;;5486144;26;19936;-83
2024/04/09 07:43:22;;;;;;;;;;;15.50;99.90;;;;;;5465612;26;19997;-83
2024/04/09 07:45:54;;;;;;;;;;;15.60;31.00;;;;;;5444252;26;19935;-82
2024/04/09 07:48:20;;;;;;;;;;;15.50;1.00;;;;;;5466047;26;19936;-82
2024/04/09 07:50:45;;;;;;;;;;;15.50;36.90;;;;;;5464689;26;19937;-83
2024/04/09 07:53:11;;;;;;;;;;;15.50;1.00;;;;;;5472539;26;19936;-83
2024/04/09 07:55:37;;;;;;;;;;;15.50;1.00;;;;;;5453329;26;19928;-84
2024/04/09 07:58:03;;;;;;;;;;;15.50;1.00;;;;;;5486615;26;20001;-83
2024/04/09 08:00:29;;;;;;;;;;;15.50;1.00;;;;;;5490925;26;20000;-83
2024/04/09 08:02:54;;;;;;;;;;;15.70;1.00;;;;;;5485131;26;19928;-83
2024/04/09 08:05:21;;;;;;;;;;;15.90;1.00;;;;;;5491744;26;19936;-83
2024/04/09 08:07:47;;;;;;;;;;;16.00;1.00;;;;;;5459650;26;19935;-83
2024/04/09 08:10:13;;;;;;;;;;;15.80;1.00;;;;;;5480494;26;20430;-83
2024/04/09 08:12:39;;;;;;;;;;;15.70;1.00;;;;;;5471735;26;19929;-83
2024/04/09 08:15:05;;;;;;;;;;;15.50;1.00;;;;;;5470603;26;19951;-83
2024/04/09 08:17:30;;;;;;;;;;;15.30;1.00;;;;;;5488045;26;19952;-82
2024/04/09 08:19:55;;;;;;;;;;;15.20;1.00;;;;;;5479364;26;19928;-81
2024/04/09 08:22:22;;;;;;;;;;;15.10;1.00;;;;;;5465269;26;19935;-81
2024/04/09 08:24:47;;;;;;;;;;;15.10;1.00;;;;;;5432592;26;20017;-80
2024/04/09 08:27:13;;;;;;;;;;;15.00;1.00;;;;;;5467327;26;20378;-82
2024/04/09 08:29:39;;;;;;;;;;;15.00;1.00;;;;;;5475676;26;19932;-81
2024/04/09 08:32:05;;;;;;;;;;;15.00;99.90;;;;;;5487070;26;19979;-82
2024/04/09 08:34:30;;;;;;;;;;;14.90;99.90;;;;;;5479220;26;19928;-82
2024/04/09 08:36:56;;;;;;;;;;;14.90;99.90;;;;;;5479646;26;19957;-81
2024/04/09 08:39:21;;;;;;;;;;;14.90;99.90;;;;;;5428661;26;19929;-82
2024/04/09 08:41:47;;;;;;;;;;;14.80;99.90;;;;;;5454570;26;19943;-80
2024/04/09 08:44:13;;;;;;;;;;;14.70;99.90;;;;;;5459174;26;19935;-82
2024/04/09 08:46:38;;;;;;;;;;;14.60;99.90;;;;;;5428291;26;19935;-82
2024/04/09 08:49:05;;;;;;;;;;;14.50;99.90;;;;;;5455649;26;19967;-82
2024/04/09 08:51:31;;;;;;;;;;;14.40;99.90;;;;;;5473085;26;20308;-82
2024/04/09 08:53:57;;;;;;;;;;;14.50;99.90;;;;;;5463622;26;19936;-82
2024/04/09 08:56:23;;;;;;;;;;;14.60;99.90;;;;;;5454043;26;19928;-82
2024/04/09 08:58:48;;;;;;;;;;;14.90;99.90;;;;;;5471307;26;19946;-82
2024/04/09 09:01:26;;;;;;;;;;;15.30;99.90;;;;;;5456831;26;19929;-83
2024/04/09 09:03:52;;;;;;;;;;;16.10;99.90;;;;;;5434720;26;19944;-82
2024/04/09 09:06:18;;;;;;;;;;;16.60;99.90;;;;;;5477215;26;19932;-82
2024/04/09 09:08:43;;;;;;;;;;;16.80;99.90;;;;;;5447590;26;19932;-82
2024/04/09 09:11:09;;;;;;;;;;;16.80;99.90;;;;;;5452274;26;19928;-81
2024/04/09 09:13:35;;;;;;;;;;;16.70;99.90;;;;;;5453485;26;19960;-82
2024/04/09 09:16:00;;;;;;;;;;;16.60;99.90;;;;;;5453444;26;19937;-81
2024/04/09 09:18:27;;;;;;;;;;;16.50;99.90;;;;;;5458648;26;19935;-82
2024/04/09 09:21:02;;;;;;;;;;;16.30;99.90;;;;;;5475674;26;20273;-83
2024/04/09 09:23:28;;;;;;;;;;;16.10;99.90;;;;;;5472664;26;19972;-82
2024/04/09 09:25:55;;;;;;;;;;;16.00;99.90;;;;;;5484080;26;20278;-82
2024/04/09 09:28:21;;;;;;;;;;;15.80;99.90;;;;;;5442869;26;19929;-82
2024/04/09 09:30:47;;;;;;;;;;;15.60;99.90;;;;;;5461727;26;20491;-81
2024/04/09 09:33:19;;;;;;;;;;;15.50;99.90;;;;;;5471688;26;19940;-82
2024/04/09 09:35:48;;;;;;;;;;;15.60;99.90;;;;;;5479227;26;20381;-82
2024/04/09 09:38:15;;;;;;;;;;;16.10;99.90;;;;;;5480642;26;19932;-82
2024/04/09 09:40:42;;;;;;;;;;;16.70;99.90;;;;;;5483490;26;20390;-82
2024/04/09 09:43:08;;;;;;;;;;;17.10;99.90;;;;;;5483728;26;20299;-83
2024/04/09 09:45:34;;;;;;;;;;;17.40;99.90;;;;;;5424005;20;19934;-84
2024/04/09 09:47:59;;;;;;;;;;;17.40;99.90;;;;;;5323661;26;20295;-84
2024/04/09 09:50:25;;;;;;;;;;;17.40;99.90;;;;;;5347769;26;20338;-85
2024/04/09 09:52:52;;;;;;;;;;;17.50;99.90;;;;;;5307660;26;19930;-86
2024/04/09 09:55:18;;;;;;;;;;;17.50;99.90;;;;;;5350709;26;19942;-84
2024/04/09 09:57:47;;;;;;;;;;;17.40;99.90;;;;;;5340342;26;19962;-84
2024/04/09 10:00:15;;;;;;;;;;;17.20;99.90;;;;;;5324194;26;19934;-83
2024/04/09 10:02:42;;;;;;;;;;;17.00;99.90;;;;;;5318126;26;19999;-82
2024/04/09 10:05:12;;;;;;;;;;;16.80;99.90;;;;;;5347649;26;19944;-83
2024/04/09 10:07:37;;;;;;;;;;;16.80;99.90;;;;;;5327855;26;20430;-83
2024/04/09 10:10:03;;;;;;;;;;;16.80;99.90;;;;;;5316472;26;19930;-82
2024/04/09 10:12:29;;;;;;;;;;;16.80;99.90;;;;;;5341046;26;19963;-82
2024/04/09 10:14:55;;;;;;;;;;;16.80;99.90;;;;;;5318257;26;20000;-84
2024/04/09 10:17:21;;;;;;;;;;;16.90;99.90;;;;;;5324437;26;19941;-84
2024/04/09 10:19:47;;;;;;;;;;;16.90;99.90;;;;;;5324881;26;20388;-84
2024/04/09 10:22:14;;;;;;;;;;;17.10;99.90;;;;;;5353805;26;19930;-83
2024/04/09 10:24:40;;;;;;;;;;;17.30;99.90;;;;;;5340904;26;19952;-83
2024/04/09 10:27:11;;;;;;;;;;;17.40;99.90;;;;;;5354340;26;19930;-83
2024/04/09 10:29:48;;;;;;;;;;;17.50;99.90;;;;;;5315232;26;19946;-83
2024/04/09 10:32:28;;;;;;;;;;;17.80;99.90;;;;;;5334487;26;19930;-83
2024/04/09 10:34:54;;;;;;;;;;;18.10;99.90;;;;;;5306511;26;19930;-83
2024/04/09 10:37:20;;;;;;;;;;;18.40;99.90;;;;;;5346442;26;19937;-83
2024/04/09 10:39:45;;;;;;;;;;;18.70;99.90;;;;;;5345793;26;20004;-83
2024/04/09 10:42:16;;;;;;;;;;;19.10;99.90;;;;;;5316727;26;19954;-83
2024/04/09 10:44:51;;;;;;;;;;;19.30;99.90;;;;;;5345577;26;19930;-83
2024/04/09 10:47:16;;;;;;;;;;;19.40;99.90;;;;;;5316106;26;20272;-83
2024/04/09 10:49:42;;;;;;;;;;;19.50;99.90;;;;;;5312857;26;19938;-83
2024/04/09 10:52:08;;;;;;;;;;;19.80;99.90;;;;;;5315441;26;19934;-84
2024/04/09 10:54:36;;;;;;;;;;;20.20;99.90;;;;;;5326882;26;19932;-83
2024/04/09 10:57:05;;;;;;;;;;;20.90;99.90;;;;;;5315492;26;19930;-83
2024/04/09 10:59:39;;;;;;;;;;;21.30;99.90;;;;;;5316391;26;20360;-83
2024/04/09 11:02:06;;;;;;;;;;;21.40;99.90;;;;;;5315746;26;20372;-83
2024/04/09 11:04:36;;;;;;;;;;;21.40;99.90;;;;;;5317564;26;19931;-84
2024/04/09 11:07:04;;;;;;;;;;;21.10;99.90;;;;;;5315553;26;19930;-85
2024/04/09 11:09:40;;;;;;;;;;;20.90;99.90;;;;;;5324255;26;19942;-84
2024/04/09 11:12:09;;;;;;;;;;;20.70;99.90;;;;;;5345794;26;20014;-85
2024/04/09 11:14:38;;;;;;;;;;;20.40;99.90;;;;;;5324933;26;19930;-84
2024/04/09 11:17:06;;;;;;;;;;;20.10;99.90;;;;;;5327393;26;19950;-84
2024/04/09 11:19:32;;;;;;;;;;;20.30;99.90;;;;;;5318510;26;19930;-83
2024/04/09 11:22:00;;;;;;;;;;;20.60;99.90;;;;;;5348752;26;19937;-84
2024/04/09 11:24:26;;;;;;;;;;;20.60;99.90;;;;;;5318227;26;19937;-82
2024/04/09 11:27:01;;;;;;;;;;;20.30;99.90;;;;;;5331969;26;19930;-84
2024/04/09 11:29:33;;;;;;;;;;;20.20;99.90;;;;;;5349264;26;19930;-84
2024/04/09 11:32:09;;;;;;;;;;;20.30;99.90;;;;;;5324422;26;19942;-84
2024/04/09 11:34:37;;;;;;;;;;;20.30;99.90;;;;;;5345490;26;19957;-84
2024/04/09 11:37:25;;;;;;;;;;;20.90;99.90;;;;;;5344409;26;19930;-84
2024/04/09 11:40:04;;;;;;;;;;;21.60;99.90;;;;;;5343335;26;19930;-84
2024/04/09 11:42:47;;;;;;;;;;;22.30;99.90;;;;;;5321727;26;19938;-83
2024/04/09 11:45:18;;;;;;;;;;;22.50;99.90;;;;;;5326135;26;19930;-83
2024/04/09 11:47:43;;;;;;;;;;;23.20;99.90;;;;;;5318982;26;20393;-84
2024/04/09 11:50:09;;;;;;;;;;;23.30;99.90;;;;;;5326730;26;19930;-85
2024/04/09 11:52:35;;;;;;;;;;;22.80;99.90;;;;;;5321647;26;19930;-83
2024/04/09 11:55:00;;;;;;;;;;;22.00;99.90;;;;;;5355323;26;20502;-81
2024/04/09 11:57:25;;;;;;;;;;;21.50;99.90;;;;;;5357727;26;19930;-83
2024/04/09 11:59:59;;;;;;;;;;;21.20;99.90;;;;;;5365507;26;19930;-83
2024/04/09 12:02:27;;;;;;;;;;;20.90;99.90;;;;;;5322624;26;20233;-82
2024/04/09 12:05:12;;;;;;;;;;;20.50;99.90;;;;;;5337727;26;19931;-83
2024/04/09 12:07:43;;;;;;;;;;;20.00;99.90;;;;;;5316490;26;19937;-83
2024/04/09 12:10:09;;;;;;;;;;;19.90;99.90;;;;;;5319279;26;19938;-82
2024/04/09 12:12:35;;;;;;;;;;;19.80;99.90;;;;;;5318837;26;19999;-82
2024/04/09 12:15:01;;;;;;;;;;;19.80;99.90;;;;;;5341291;26;19939;-82
2024/04/09 12:17:27;;;;;;;;;;;20.20;99.90;;;;;;5344276;26;19938;-81
2024/04/09 12:19:53;;;;;;;;;;;20.10;99.90;;;;;;5317152;26;19941;-83
2024/04/09 12:22:18;;;;;;;;;;;20.30;99.90;;;;;;5349147;26;19930;-82
2024/04/09 12:25:04;;;;;;;;;;;21.50;99.90;;;;;;5348333;26;19930;-84
2024/04/09 12:27:29;;;;;;;;;;;21.90;99.90;;;;;;5337593;26;19937;-83
2024/04/09 12:30:03;;;;;;;;;;;22.00;99.90;;;;;;5320751;26;20360;-84
2024/04/09 12:32:34;;;;;;;;;;;22.50;99.90;;;;;;5311805;26;19937;-82
2024/04/09 12:34:59;;;;;;;;;;;22.60;99.90;;;;;;5326032;26;19930;-85
2024/04/09 12:37:25;;;;;;;;;;;22.00;99.90;;;;;;5346364;26;19937;-83
2024/04/09 12:39:51;;;;;;;;;;;21.70;99.90;;;;;;5319237;26;19930;-84
2024/04/09 12:42:16;;;;;;;;;;;21.70;99.90;;;;;;5351465;26;19937;-84
2024/04/09 12:44:42;;;;;;;;;;;21.50;99.90;;;;;;5340048;26;19930;-84
2024/04/09 12:47:11;;;;;;;;;;;20.90;99.90;;;;;;5310244;26;19958;-84
2024/04/09 12:49:43;;;;;;;;;;;20.40;99.90;;;;;;5312633;26;19976;-84
2024/04/09 12:52:19;;;;;;;;;;;19.90;99.90;;;;;;5343987;26;19934;-84
2024/04/09 12:54:47;;;;;;;;;;;19.30;99.90;;;;;;5352050;26;19930;-83
2024/04/09 12:57:21;;;;;;;;;;;18.90;99.90;;;;;;5325645;26;19930;-84
2024/04/09 12:59:47;;;;;;;;;;;18.70;99.90;;;;;;5325370;26;20362;-84
2024/04/09 13:02:15;;;;;;;;;;;18.70;99.90;;;;;;5323945;26;19937;-83
2024/04/09 13:04:43;;;;;;;;;;;18.60;99.90;;;;;;5318165;26;19938;-84
2024/04/09 13:07:12;;;;;;;;;;;18.50;99.90;;;;;;5323003;26;19949;-80
2024/04/09 13:09:38;;;;;;;;;;;18.50;99.90;;;;;;5320767;26;19937;-84
2024/04/09 13:12:06;;;;;;;;;;;18.70;99.90;;;;;;5314275;26;19930;-84
2024/04/09 13:14:32;;;;;;;;;;;19.30;99.90;;;;;;5411456;21;20406;-83
2024/04/09 13:17:00;;;;;;;;;;;19.30;99.90;;;;;;5357658;26;19941;-83
2024/04/09 13:22:20;;;;;;;;;;;18.70;99.90;;;;;;5365233;26;20431;-82
2024/04/09 13:24:46;;;;;;;;;;;18.10;99.90;;;;;;5355458;26;19930;-81
2024/04/09 13:27:15;;;;;;;;;;;17.80;99.90;;;;;;5355780;26;19961;-82
2024/04/09 13:29:42;;;;;;;;;;;17.60;99.90;;;;;;5353734;26;19929;-82
2024/04/09 13:32:18;;;;;;;;;;;17.30;99.90;;;;;;5357006;26;19976;-83
2024/04/09 13:34:44;;;;;;;;;;;17.20;99.90;;;;;;5355448;26;19930;-83
2024/04/09 13:37:10;;;;;;;;;;;17.30;99.90;;;;;;5382970;26;20002;-82
2024/04/09 13:39:35;;;;;;;;;;;17.90;99.90;;;;;;5395386;26;19938;-83
2024/04/09 13:42:03;;;;;;;;;;;18.20;99.90;;;;;;5340733;26;19938;-80
2024/04/09 13:44:29;;;;;;;;;;;18.30;99.90;;;;;;5339755;26;19931;-82
2024/04/09 13:47:01;;;;;;;;;;;18.10;99.90;;;;;;5368920;26;20376;-85
2024/04/09 13:49:29;;;;;;;;;;;18.10;99.90;;;;;;5336740;26;19940;-81
2024/04/09 13:52:00;;;;;;;;;;;18.00;99.90;;;;;;5339107;26;20830;-82
2024/04/09 13:54:29;;;;;;;;;;;17.80;99.90;;;;;;5345093;26;19930;-81
2024/04/09 13:56:57;;;;;;;;;;;17.80;99.90;;;;;;5346849;26;19941;-82
2024/04/09 13:59:26;;;;;;;;;;;18.00;99.90;;;;;;5348157;26;20367;-82
2024/04/09 14:01:51;;;;;;;;;;;17.90;99.90;;;;;;5353678;26;19979;-81
2024/04/09 14:04:22;;;;;;;;;;;17.80;99.90;;;;;;5355040;26;19929;-80
2024/04/09 14:06:51;;;;;;;;;;;17.60;99.90;;;;;;5353808;26;19938;-83
2024/04/09 14:09:20;;;;;;;;;;;17.30;99.90;;;;;;5354328;26;19930;-81
2024/04/09 14:11:48;;;;;;;;;;;17.30;99.90;;;;;;5351710;26;19930;-82
2024/04/09 14:14:14;;;;;;;;;;;17.30;99.90;;;;;;5353486;26;19935;-83
2024/04/09 14:16:42;;;;;;;;;;;17.30;99.90;;;;;;5361232;26;19941;-84
2024/04/09 14:19:12;;;;;;;;;;;17.20;99.90;;;;;;5356621;26;19945;-83
2024/04/09 14:21:41;;;;;;;;;;;17.00;99.90;;;;;;5360215;26;19936;-84
2024/04/09 14:24:12;;;;;;;;;;;16.80;99.90;;;;;;5358506;26;19929;-84
2024/04/09 14:26:40;;;;;;;;;;;16.60;99.90;;;;;;5358884;26;19929;-83